createdAt,value
2018-06-21T00:01:29.134Z,14.50
2018-06-21T00:03:56.568Z,14.50
2018-06-21T00:06:24.028Z,14.50
2018-06-21T00:08:51.468Z,14.60
2018-06-21T00:11:18.893Z,14.60
2018-06-21T00:16:13.742Z,14.60
2018-06-21T00:18:41.172Z,14.60
2018-06-21T00:21:08.583Z,14.70
2018-06-21T00:23:36.346Z,14.70
2018-06-21T00:26:03.960Z,14.80
2018-06-21T00:28:31.431Z,14.80
2018-06-21T00:30:58.941Z,14.80
2018-06-21T00:33:26.420Z,14.70
2018-06-21T00:35:53.893Z,14.70
2018-06-21T00:38:21.468Z,14.70
2018-06-21T00:40:49.053Z,14.60
2018-06-21T00:43:16.555Z,14.70
2018-06-21T00:45:44.167Z,14.60
2018-06-21T00:48:11.897Z,14.70
2018-06-21T00:50:39.471Z,14.70
2018-06-21T00:53:06.960Z,14.70
2018-06-21T00:55:46.072Z,14.60
2018-06-21T00:58:13.646Z,14.60
2018-06-21T01:00:41.118Z,14.60
2018-06-21T01:03:08.741Z,14.70
2018-06-21T01:05:36.356Z,14.60
2018-06-21T01:08:03.845Z,14.60
2018-06-21T01:10:31.300Z,14.50
2018-06-21T01:12:58.866Z,14.50
2018-06-21T01:15:26.313Z,14.50
2018-06-21T01:17:53.809Z,14.50
2018-06-21T01:20:21.429Z,14.50
2018-06-21T01:22:49.039Z,14.50
2018-06-21T01:25:16.735Z,14.40
2018-06-21T01:30:11.653Z,14.50
2018-06-21T01:32:39.131Z,14.50
2018-06-21T01:35:06.704Z,14.50
2018-06-21T01:37:34.125Z,14.50
2018-06-21T01:40:01.552Z,14.50
2018-06-21T01:42:28.957Z,14.40
2018-06-21T01:44:56.381Z,14.40
2018-06-21T01:47:23.767Z,14.40
2018-06-21T01:49:51.253Z,14.40
2018-06-21T01:52:18.718Z,14.60
2018-06-21T01:54:46.199Z,14.50
2018-06-21T01:57:13.630Z,14.50
2018-06-21T02:02:16.088Z,14.50
2018-06-21T02:04:44.067Z,14.50
2018-06-21T02:07:11.764Z,14.50
2018-06-21T02:09:39.840Z,14.40
2018-06-21T02:12:09.586Z,14.30
2018-06-21T02:14:38.166Z,14.40
2018-06-21T02:17:05.713Z,14.40
2018-06-21T02:19:42.276Z,14.40
2018-06-21T02:22:11.745Z,14.50
2018-06-21T02:24:39.295Z,14.50
2018-06-21T02:27:07.084Z,14.40
2018-06-21T02:29:34.654Z,14.40
2018-06-21T02:32:03.247Z,14.40
2018-06-21T02:34:30.693Z,14.50
2018-06-21T02:36:58.182Z,14.50
2018-06-21T02:39:25.664Z,14.40
2018-06-21T02:41:53.090Z,14.30
2018-06-21T02:44:20.561Z,14.20
2018-06-21T02:46:48.020Z,14.10
2018-06-21T02:49:15.717Z,14.10
2018-06-21T02:51:43.227Z,14.00
2018-06-21T02:54:10.686Z,14.00
2018-06-21T02:56:38.119Z,13.90
2018-06-21T02:59:05.721Z,13.80
2018-06-21T03:01:33.145Z,13.70
2018-06-21T03:04:00.619Z,13.60
2018-06-21T03:06:27.974Z,13.50
2018-06-21T03:08:55.367Z,13.40
2018-06-21T03:11:22.778Z,13.20
2018-06-21T03:13:50.230Z,13.10
2018-06-21T03:16:17.641Z,13.00
2018-06-21T03:18:45.065Z,12.90
2018-06-21T03:21:12.475Z,12.90
2018-06-21T03:23:40.400Z,12.80
2018-06-21T03:26:07.849Z,12.80
2018-06-21T03:28:35.281Z,12.70
2018-06-21T03:31:02.730Z,12.70
2018-06-21T03:33:30.146Z,12.60
2018-06-21T03:38:24.947Z,12.60
2018-06-21T03:40:52.326Z,12.60
2018-06-21T03:43:19.746Z,12.60
2018-06-21T03:45:47.200Z,12.60
2018-06-21T03:48:14.610Z,12.60
2018-06-21T03:50:42.077Z,12.60
2018-06-21T03:55:36.947Z,12.60
2018-06-21T03:58:04.706Z,12.50
2018-06-21T04:00:32.138Z,12.50
2018-06-21T04:02:59.607Z,12.50
2018-06-21T04:05:28.947Z,12.50
2018-06-21T04:07:56.492Z,12.50
2018-06-21T04:10:24.159Z,12.50
2018-06-21T04:12:51.764Z,12.60
2018-06-21T04:15:19.656Z,12.60
2018-06-21T04:17:47.306Z,12.70
2018-06-21T04:20:14.879Z,12.60
2018-06-21T04:22:42.377Z,12.70
2018-06-21T04:25:09.806Z,12.60
2018-06-21T04:27:37.270Z,12.70
2018-06-21T04:30:05.056Z,12.70
2018-06-21T04:32:38.457Z,12.70
2018-06-21T04:35:06.692Z,12.80
2018-06-21T04:37:34.485Z,12.90
2018-06-21T04:40:02.491Z,13.00
2018-06-21T04:42:30.183Z,13.00
2018-06-21T04:44:57.822Z,12.90
2018-06-21T04:47:25.661Z,12.90
2018-06-21T04:49:53.190Z,12.90
2018-06-21T04:52:20.757Z,12.90
2018-06-21T04:54:48.369Z,12.80
2018-06-21T04:57:15.941Z,12.80
2018-06-21T04:59:43.473Z,12.60
2018-06-21T05:02:11.977Z,12.70
2018-06-21T05:04:39.490Z,12.70
2018-06-21T05:07:07.088Z,12.60
2018-06-21T05:12:02.060Z,12.50
2018-06-21T05:14:29.476Z,12.70
2018-06-21T05:16:56.989Z,12.80
2018-06-21T05:19:24.501Z,12.80
2018-06-21T05:21:52.167Z,13.00
2018-06-21T05:24:19.665Z,13.10
2018-06-21T05:26:47.362Z,13.40
2018-06-21T05:29:15.094Z,13.30
2018-06-21T05:31:42.756Z,13.20
2018-06-21T05:34:10.284Z,13.10
2018-06-21T05:36:38.576Z,13.10
2018-06-21T05:39:07.377Z,13.20
2018-06-21T05:41:34.873Z,13.50
2018-06-21T05:44:02.905Z,13.60
2018-06-21T05:46:31.536Z,13.60
2018-06-21T05:48:59.294Z,13.70
2018-06-21T05:51:26.862Z,13.90
2018-06-21T05:53:55.229Z,14.30
2018-06-21T05:56:22.750Z,14.50
2018-06-21T05:58:50.177Z,14.60
2018-06-21T06:01:18.749Z,14.40
2018-06-21T06:03:46.505Z,14.30
2018-06-21T06:06:14.264Z,14.40
2018-06-21T06:08:41.801Z,14.40
2018-06-21T06:11:09.320Z,14.50
2018-06-21T06:13:37.111Z,14.50
2018-06-21T06:16:04.808Z,14.60
2018-06-21T06:21:01.287Z,14.20
2018-06-21T06:23:29.028Z,14.10
2018-06-21T06:25:56.559Z,14.00
2018-06-21T06:28:24.055Z,14.00
2018-06-21T06:30:51.641Z,13.90
2018-06-21T06:33:19.224Z,14.00
2018-06-21T06:35:46.960Z,14.00
2018-06-21T06:38:14.470Z,14.00
2018-06-21T06:40:41.994Z,14.20
2018-06-21T06:43:09.552Z,14.10
2018-06-21T06:45:37.970Z,14.10
2018-06-21T06:48:05.564Z,14.10
2018-06-21T06:50:32.957Z,14.00
2018-06-21T06:55:27.758Z,13.50
2018-06-21T06:57:55.199Z,13.10
2018-06-21T07:00:22.590Z,13.00
2018-06-21T07:02:50.023Z,12.90
2018-06-21T07:05:17.448Z,13.00
2018-06-21T07:07:44.844Z,13.00
2018-06-21T07:10:12.266Z,13.10
2018-06-21T07:12:39.674Z,13.20
2018-06-21T07:15:07.131Z,13.30
2018-06-21T07:17:34.653Z,13.50
2018-06-21T07:20:02.123Z,13.50
2018-06-21T07:22:29.523Z,13.40
2018-06-21T07:24:56.949Z,13.20
2018-06-21T07:27:24.342Z,13.10
2018-06-21T07:29:51.791Z,13.10
2018-06-21T07:32:19.181Z,13.10
2018-06-21T07:34:46.602Z,13.00
2018-06-21T07:37:13.997Z,13.00
2018-06-21T07:39:41.593Z,13.20
2018-06-21T07:42:09.005Z,13.30
2018-06-21T07:44:36.469Z,13.20
2018-06-21T07:47:03.886Z,13.20
2018-06-21T07:49:31.288Z,13.20
2018-06-21T07:51:58.694Z,13.10
2018-06-21T07:54:26.070Z,13.00
2018-06-21T07:56:53.503Z,13.10
2018-06-21T07:59:20.893Z,13.10
2018-06-21T08:01:48.302Z,13.00
2018-06-21T08:04:15.700Z,13.00
2018-06-21T08:09:12.065Z,12.90
2018-06-21T08:11:39.517Z,13.00
2018-06-21T08:14:06.978Z,13.10
2018-06-21T08:16:34.557Z,13.10
2018-06-21T08:19:02.196Z,13.20
2018-06-21T08:21:29.608Z,13.20
2018-06-21T08:23:57.005Z,13.00
2018-06-21T08:26:24.429Z,12.90
2018-06-21T08:28:51.832Z,12.70
2018-06-21T08:31:19.233Z,12.60
2018-06-21T08:33:46.649Z,12.50
2018-06-21T08:36:14.085Z,12.30
2018-06-21T08:38:41.553Z,12.20
2018-06-21T08:41:08.989Z,12.20
2018-06-21T08:43:36.621Z,12.20
2018-06-21T08:46:04.145Z,12.20
2018-06-21T08:48:31.526Z,12.10
2018-06-21T08:50:58.960Z,12.20
2018-06-21T08:53:26.369Z,12.20
2018-06-21T08:55:53.805Z,12.30
2018-06-21T08:58:21.238Z,12.30
2018-06-21T09:00:48.717Z,12.40
2018-06-21T09:03:16.109Z,12.60
2018-06-21T09:05:43.521Z,12.80
2018-06-21T09:08:10.932Z,12.90
2018-06-21T09:13:06.768Z,13.20
2018-06-21T09:15:34.188Z,13.30
2018-06-21T09:18:01.626Z,13.40
2018-06-21T09:20:29.161Z,13.40
2018-06-21T09:22:56.599Z,13.60
2018-06-21T09:25:24.237Z,13.70
2018-06-21T09:27:51.722Z,13.90
2018-06-21T09:30:19.281Z,13.80
2018-06-21T09:32:47.909Z,13.70
2018-06-21T09:35:15.773Z,13.80
2018-06-21T09:37:49.084Z,13.80
2018-06-21T09:40:29.378Z,13.80
2018-06-21T09:43:02.904Z,13.80
2018-06-21T09:48:09.053Z,13.80
2018-06-21T09:50:36.450Z,13.80
2018-06-21T09:53:03.881Z,13.60
2018-06-21T09:55:31.306Z,13.50
2018-06-21T10:00:25.474Z,13.40
2018-06-21T10:02:52.900Z,13.60
2018-06-21T10:05:20.309Z,13.70
2018-06-21T10:07:47.911Z,13.80
2018-06-21T10:10:15.377Z,13.80
2018-06-21T10:12:44.559Z,13.80
2018-06-21T10:15:12.694Z,13.80
2018-06-21T10:17:40.197Z,13.70
2018-06-21T10:20:07.662Z,13.60
2018-06-21T10:22:35.142Z,13.70
2018-06-21T10:25:02.598Z,13.80
2018-06-21T10:27:30.054Z,13.80
2018-06-21T10:29:57.966Z,13.80
2018-06-21T10:32:25.626Z,13.90
2018-06-21T10:34:53.110Z,14.10
2018-06-21T10:37:21.537Z,14.00
2018-06-21T10:39:50.016Z,14.00
2018-06-21T10:42:17.858Z,14.20
2018-06-21T10:44:46.419Z,14.50
2018-06-21T10:47:14.152Z,14.70
2018-06-21T10:49:42.576Z,14.90
2018-06-21T10:52:10.222Z,15.10
2018-06-21T10:54:37.718Z,15.40
2018-06-21T10:57:05.196Z,15.70
2018-06-21T10:59:32.677Z,15.90
2018-06-21T11:02:00.392Z,15.80
2018-06-21T11:04:28.311Z,15.40
2018-06-21T11:06:55.766Z,15.20
2018-06-21T11:09:24.358Z,15.30
2018-06-21T11:11:52.042Z,15.50
2018-06-21T11:14:19.623Z,16.00
2018-06-21T11:16:47.127Z,16.10
2018-06-21T11:19:18.584Z,16.20
2018-06-21T11:21:46.150Z,16.50
2018-06-21T11:24:17.191Z,16.50
2018-06-21T11:26:46.516Z,16.30
2018-06-21T11:29:14.061Z,16.30
2018-06-21T11:34:21.297Z,16.10
2018-06-21T11:36:48.890Z,16.00
2018-06-21T11:39:16.761Z,16.10
2018-06-21T11:44:14.547Z,16.50
2018-06-21T11:46:43.207Z,16.50
2018-06-21T11:49:10.937Z,16.40
2018-06-21T11:56:34.507Z,16.20
2018-06-21T11:59:05.498Z,16.40
2018-06-21T12:01:33.651Z,16.60
2018-06-21T12:04:02.481Z,16.60
2018-06-21T12:06:30.510Z,16.40
2018-06-21T12:08:59.944Z,16.00
2018-06-21T12:11:29.626Z,16.20
2018-06-21T12:13:57.151Z,16.40
2018-06-21T12:16:26.097Z,16.40
2018-06-21T12:18:53.653Z,16.50
2018-06-21T12:21:21.270Z,16.80
2018-06-21T12:23:48.723Z,17.00
2018-06-21T12:28:55.168Z,16.50
2018-06-21T12:31:22.708Z,16.20
2018-06-21T12:33:50.442Z,16.20
2018-06-21T12:36:17.957Z,16.50
2018-06-21T12:38:45.470Z,16.90
2018-06-21T12:41:14.323Z,16.90
2018-06-21T12:43:42.113Z,17.20
2018-06-21T12:46:10.531Z,17.50
2018-06-21T12:48:37.993Z,17.40
2018-06-21T12:51:05.490Z,17.30
2018-06-21T12:53:33.080Z,17.10
2018-06-21T12:56:00.733Z,17.00
2018-06-21T12:58:28.330Z,17.10
2018-06-21T13:00:55.745Z,17.40
2018-06-21T13:03:23.166Z,17.40
2018-06-21T13:05:50.604Z,17.40
2018-06-21T13:08:29.558Z,17.30
2018-06-21T13:11:08.589Z,17.60
2018-06-21T13:13:36.044Z,17.70
2018-06-21T13:16:03.445Z,17.80
2018-06-21T13:18:30.844Z,17.90
2018-06-21T13:23:25.670Z,17.60
2018-06-21T13:25:53.102Z,17.20
2018-06-21T13:28:20.546Z,16.90
2018-06-21T13:30:47.994Z,16.40
2018-06-21T13:33:15.408Z,16.10
2018-06-21T13:35:42.919Z,15.90
2018-06-21T13:38:10.326Z,15.90
2018-06-21T13:40:37.725Z,16.00
2018-06-21T13:43:05.145Z,15.90
2018-06-21T13:45:32.602Z,16.30
2018-06-21T13:48:00.009Z,16.70
2018-06-21T13:50:27.460Z,16.50
2018-06-21T13:52:54.860Z,16.60
2018-06-21T13:55:22.318Z,17.00
2018-06-21T13:57:49.754Z,16.80
2018-06-21T14:00:17.163Z,16.50
2018-06-21T14:02:44.544Z,16.20
2018-06-21T14:05:11.986Z,16.10
2018-06-21T14:07:39.501Z,16.30
2018-06-21T14:10:06.848Z,16.50
2018-06-21T14:12:34.260Z,16.60
2018-06-21T14:15:01.699Z,16.80
2018-06-21T14:17:29.144Z,16.80
2018-06-21T14:19:56.603Z,17.00
2018-06-21T14:22:24.002Z,16.90
2018-06-21T14:24:51.405Z,16.90
2018-06-21T14:27:18.800Z,16.60
2018-06-21T14:29:46.210Z,16.40
2018-06-21T14:32:13.700Z,16.40
2018-06-21T14:34:41.076Z,16.70
2018-06-21T14:37:08.525Z,16.40
2018-06-21T14:39:35.956Z,16.20
2018-06-21T14:44:30.710Z,16.10
2018-06-21T14:46:58.152Z,16.10
2018-06-21T14:49:25.544Z,16.40
2018-06-21T14:51:52.958Z,16.50
2018-06-21T14:54:20.394Z,16.50
2018-06-21T14:56:47.825Z,16.50
2018-06-21T14:59:15.296Z,16.50
2018-06-21T15:01:42.701Z,15.90
2018-06-21T15:06:37.492Z,15.70
2018-06-21T15:09:08.023Z,15.60
2018-06-21T15:11:35.710Z,15.60
2018-06-21T15:14:03.134Z,15.50
2018-06-21T15:16:30.541Z,15.60
2018-06-21T15:18:57.999Z,15.70
2018-06-21T15:21:25.416Z,15.70
2018-06-21T15:23:52.845Z,15.70
2018-06-21T15:26:20.235Z,15.60
2018-06-21T15:28:47.660Z,15.60
2018-06-21T15:31:15.108Z,15.50
2018-06-21T15:33:42.491Z,15.40
2018-06-21T15:36:09.903Z,15.30
2018-06-21T15:38:37.309Z,15.20
2018-06-21T15:41:04.746Z,15.00
2018-06-21T15:43:32.161Z,14.90
2018-06-21T15:45:59.586Z,14.80
2018-06-21T15:48:27.000Z,14.70
2018-06-21T15:50:54.384Z,14.60
2018-06-21T15:53:21.846Z,14.50
2018-06-21T15:55:49.259Z,14.30
2018-06-21T15:58:16.665Z,14.20
2018-06-21T16:00:44.061Z,14.20
2018-06-21T16:03:11.538Z,14.00
2018-06-21T16:05:38.875Z,14.00
2018-06-21T16:08:06.337Z,14.10
2018-06-21T16:10:33.755Z,14.10
2018-06-21T16:13:01.154Z,14.00
2018-06-21T16:15:28.543Z,13.90
2018-06-21T16:17:55.994Z,13.90
2018-06-21T16:20:23.398Z,14.00
2018-06-21T16:22:50.866Z,14.20
2018-06-21T16:25:18.330Z,14.20
2018-06-21T16:27:45.734Z,14.20
2018-06-21T16:30:13.185Z,14.30
2018-06-21T16:32:40.836Z,14.30
2018-06-21T16:35:08.274Z,14.30
2018-06-21T16:37:35.678Z,14.20
2018-06-21T16:40:03.165Z,14.10
2018-06-21T16:42:30.607Z,14.10
2018-06-21T16:44:58.025Z,14.10
2018-06-21T16:47:25.427Z,14.00
2018-06-21T16:49:52.856Z,13.80
2018-06-21T16:52:20.281Z,13.80
2018-06-21T16:54:47.758Z,13.80
2018-06-21T16:57:15.180Z,13.80
2018-06-21T16:59:42.621Z,13.80
2018-06-21T17:02:10.090Z,13.80
2018-06-21T17:04:37.477Z,13.90
2018-06-21T17:07:04.905Z,13.90
2018-06-21T17:09:32.317Z,14.10
2018-06-21T17:11:59.718Z,14.20
2018-06-21T17:14:27.137Z,14.40
2018-06-21T17:16:54.628Z,14.40
2018-06-21T17:19:22.022Z,14.40
2018-06-21T17:21:49.445Z,14.40
2018-06-21T17:26:44.300Z,14.60
2018-06-21T17:29:11.698Z,14.70
2018-06-21T17:31:39.136Z,15.00
2018-06-21T17:34:06.545Z,15.10
2018-06-21T17:36:33.992Z,15.40
2018-06-21T17:39:01.400Z,15.40
2018-06-21T17:41:28.819Z,15.40
2018-06-21T17:43:56.213Z,14.90
2018-06-21T17:46:23.609Z,14.70
2018-06-21T17:48:51.034Z,14.20
2018-06-21T17:51:18.467Z,13.90
2018-06-21T17:53:45.913Z,14.10
2018-06-21T17:56:13.373Z,14.30
2018-06-21T17:58:40.773Z,14.50
2018-06-21T18:01:08.274Z,14.40
2018-06-21T18:03:35.676Z,13.90
2018-06-21T18:06:03.096Z,13.40
2018-06-21T18:08:30.476Z,13.10
2018-06-21T18:10:57.914Z,12.80
2018-06-21T18:13:25.296Z,12.60
2018-06-21T18:15:52.708Z,12.50
2018-06-21T18:18:20.186Z,12.40
2018-06-21T18:20:47.628Z,12.30
2018-06-21T18:23:15.057Z,12.30
2018-06-21T18:25:42.474Z,12.20
2018-06-21T18:28:09.869Z,12.20
2018-06-21T18:30:37.298Z,12.20
2018-06-21T18:33:04.761Z,12.20
2018-06-21T18:35:32.280Z,12.00
2018-06-21T18:37:59.647Z,11.90
2018-06-21T18:40:27.074Z,11.90
2018-06-21T18:42:54.508Z,11.80
2018-06-21T18:45:21.938Z,11.80
2018-06-21T18:47:49.346Z,11.60
2018-06-21T18:50:16.750Z,11.60
2018-06-21T18:52:44.193Z,11.40
2018-06-21T18:55:11.574Z,11.40
2018-06-21T18:57:38.940Z,11.30
2018-06-21T19:00:07.560Z,11.20
2018-06-21T19:02:34.989Z,11.00
2018-06-21T19:05:02.450Z,10.90
2018-06-21T19:07:32.489Z,10.70
2018-06-21T19:10:05.597Z,10.60
2018-06-21T19:12:33.097Z,10.50
2018-06-21T19:15:00.691Z,10.40
2018-06-21T19:17:28.180Z,10.30
2018-06-21T19:19:55.648Z,10.20
2018-06-21T19:22:23.105Z,10.20
2018-06-21T19:24:50.537Z,10.10
2018-06-21T19:27:17.952Z,10.00
2018-06-21T19:29:45.355Z,9.90
2018-06-21T19:32:12.929Z,9.80
2018-06-21T19:34:40.344Z,9.70
2018-06-21T19:37:07.749Z,9.60
2018-06-21T19:39:35.264Z,9.60
2018-06-21T19:42:02.677Z,9.40
2018-06-21T19:44:30.073Z,9.30
2018-06-21T19:46:57.485Z,9.20
2018-06-21T19:49:24.923Z,9.10
2018-06-21T19:51:52.341Z,9.10
2018-06-21T19:54:19.806Z,9.10
2018-06-21T19:56:47.204Z,9.10
2018-06-21T20:01:42.018Z,9.10
2018-06-21T20:04:09.436Z,9.10
2018-06-21T20:06:36.851Z,9.20
2018-06-21T20:09:07.011Z,9.20
2018-06-21T20:11:35.338Z,9.30
2018-06-21T20:16:30.202Z,9.40
2018-06-21T20:19:06.098Z,9.50
2018-06-21T20:21:33.485Z,9.60
2018-06-21T20:24:00.872Z,9.60
2018-06-21T20:26:28.248Z,9.60
2018-06-21T20:28:55.692Z,9.60
2018-06-21T20:31:23.123Z,9.60
2018-06-21T20:33:50.585Z,9.50
2018-06-21T20:36:22.767Z,9.50
2018-06-21T20:38:50.170Z,9.40
2018-06-21T20:41:17.585Z,9.30
2018-06-21T20:43:45.001Z,9.20
2018-06-21T20:46:12.413Z,9.10
2018-06-21T20:48:39.822Z,9.10
2018-06-21T20:51:07.233Z,9.00
2018-06-21T20:53:34.632Z,9.00
2018-06-21T20:56:02.072Z,8.90
2018-06-21T20:58:29.464Z,8.80
2018-06-21T21:00:56.931Z,8.70
2018-06-21T21:03:24.331Z,8.70
2018-06-21T21:05:51.738Z,8.70
2018-06-21T21:08:19.173Z,8.60
2018-06-21T21:10:46.569Z,8.50
2018-06-21T21:13:13.993Z,8.50
2018-06-21T21:15:41.409Z,8.50
2018-06-21T21:18:08.819Z,8.50
2018-06-21T21:20:36.225Z,8.40
2018-06-21T21:23:03.659Z,8.40
2018-06-21T21:25:31.085Z,8.40
2018-06-21T21:27:58.564Z,8.40
2018-06-21T21:30:25.967Z,8.40
2018-06-21T21:32:53.357Z,8.40
2018-06-21T21:35:20.817Z,8.40
2018-06-21T21:37:48.232Z,8.40
2018-06-21T21:40:15.948Z,8.50
2018-06-21T21:45:10.792Z,8.50
2018-06-21T21:47:38.235Z,8.50
2018-06-21T21:50:05.694Z,8.50
2018-06-21T21:55:00.503Z,8.60
2018-06-21T21:57:27.937Z,8.60
2018-06-21T21:59:55.339Z,8.70
2018-06-21T22:02:22.780Z,8.70
2018-06-21T22:04:50.224Z,8.80
2018-06-21T22:07:17.613Z,8.80
2018-06-21T22:09:45.286Z,8.90
2018-06-21T22:12:12.700Z,8.90
2018-06-21T22:14:40.109Z,8.90
2018-06-21T22:17:07.511Z,8.90
2018-06-21T22:19:34.970Z,8.90
2018-06-21T22:22:02.379Z,9.00
2018-06-21T22:24:29.825Z,9.00
2018-06-21T22:26:57.249Z,9.00
2018-06-21T22:29:24.649Z,9.00
2018-06-21T22:31:52.065Z,9.00
2018-06-21T22:34:19.849Z,9.00
2018-06-21T22:36:47.601Z,9.00
2018-06-21T22:39:15.010Z,8.90
2018-06-21T22:44:11.000Z,8.90
2018-06-21T22:46:38.388Z,8.90
2018-06-21T22:49:06.236Z,8.90
2018-06-21T22:51:33.794Z,9.00
2018-06-21T22:54:01.403Z,9.00
2018-06-21T22:56:28.849Z,9.00
2018-06-21T22:58:56.616Z,9.00
2018-06-21T23:01:23.998Z,9.00
2018-06-21T23:03:51.597Z,9.00
2018-06-21T23:06:19.024Z,9.00
2018-06-21T23:08:46.490Z,9.00
2018-06-21T23:11:13.951Z,8.90
2018-06-21T23:13:41.361Z,8.90
2018-06-21T23:16:08.749Z,8.90
2018-06-21T23:18:47.825Z,8.90
2018-06-21T23:21:15.242Z,8.90
2018-06-21T23:23:42.800Z,8.90
2018-06-21T23:26:10.208Z,8.80
2018-06-21T23:28:37.672Z,8.80
2018-06-21T23:31:05.083Z,8.80
2018-06-21T23:33:32.802Z,8.80
2018-06-21T23:36:01.103Z,8.80
2018-06-21T23:38:28.501Z,8.80
2018-06-21T23:40:55.925Z,8.80
2018-06-21T23:43:23.346Z,8.70
2018-06-21T23:45:50.749Z,8.70
2018-06-21T23:48:18.563Z,8.70
2018-06-21T23:50:46.007Z,8.70
2018-06-21T23:53:13.421Z,8.60
2018-06-21T23:55:41.001Z,8.60
2018-06-21T23:58:08.434Z,8.60
